createdAt,value
2018-03-08T00:02:20.192Z,18.81
2018-03-08T00:04:46.334Z,18.82
2018-03-08T00:07:12.515Z,18.84
2018-03-08T00:09:38.709Z,18.82
2018-03-08T00:12:04.903Z,18.83
2018-03-08T00:14:31.064Z,18.84
2018-03-08T00:16:57.283Z,18.83
2018-03-08T00:19:23.478Z,18.84
2018-03-08T00:21:49.655Z,18.84
2018-03-08T00:24:16.142Z,18.82
2018-03-08T00:26:42.578Z,18.81
2018-03-08T00:29:08.791Z,18.81
2018-03-08T00:31:34.947Z,18.80
2018-03-08T00:34:01.106Z,18.83
2018-03-08T00:36:27.318Z,18.82
2018-03-08T00:38:53.482Z,18.80
2018-03-08T00:41:19.942Z,18.83
2018-03-08T00:43:46.478Z,18.85
2018-03-08T00:46:12.671Z,18.85
2018-03-08T00:48:39.138Z,18.85
2018-03-08T00:51:05.311Z,18.83
2018-03-08T00:53:31.575Z,18.79
2018-03-08T00:55:57.762Z,18.76
2018-03-08T00:58:24.255Z,18.77
2018-03-08T01:00:50.480Z,18.80
2018-03-08T01:03:16.631Z,18.83
2018-03-08T01:05:42.858Z,18.83
2018-03-08T01:08:09.023Z,18.84
2018-03-08T01:10:35.226Z,18.84
2018-03-08T01:13:01.457Z,18.86
2018-03-08T01:15:27.655Z,18.92
2018-03-08T01:17:53.841Z,18.98
2018-03-08T01:20:20.065Z,19.02
2018-03-08T01:22:46.314Z,18.94
2018-03-08T01:25:12.494Z,18.88
2018-03-08T01:27:38.993Z,18.84
2018-03-08T01:30:05.206Z,18.83
2018-03-08T01:32:31.400Z,18.82
2018-03-08T01:34:57.880Z,18.79
2018-03-08T01:37:24.318Z,18.78
2018-03-08T01:39:50.464Z,18.81
2018-03-08T01:42:16.641Z,18.86
2018-03-08T01:44:42.791Z,18.84
2018-03-08T01:47:09.030Z,18.87
2018-03-08T01:49:35.223Z,18.83
2018-03-08T01:52:10.607Z,18.78
2018-03-08T01:54:37.132Z,18.80
2018-03-08T01:57:03.322Z,18.78
2018-03-08T01:59:29.515Z,18.76
2018-03-08T02:01:55.736Z,18.75
2018-03-08T02:04:21.935Z,18.73
2018-03-08T02:06:48.102Z,18.73
2018-03-08T02:09:14.595Z,18.74
2018-03-08T02:11:40.752Z,18.71
2018-03-08T02:14:06.955Z,18.74
2018-03-08T02:16:33.498Z,18.72
2018-03-08T02:18:59.718Z,18.70
2018-03-08T02:21:25.901Z,18.73
2018-03-08T02:23:52.384Z,18.74
2018-03-08T02:26:18.840Z,18.72
2018-03-08T02:28:45.031Z,18.70
2018-03-08T02:31:11.257Z,18.70
2018-03-08T02:33:37.414Z,18.68
2018-03-08T02:36:03.593Z,18.69
2018-03-08T02:38:30.062Z,18.70
2018-03-08T02:40:56.273Z,18.70
2018-03-08T02:43:22.473Z,18.68
2018-03-08T02:45:48.952Z,18.65
2018-03-08T02:48:15.148Z,18.67
2018-03-08T02:50:41.316Z,18.68
2018-03-08T02:53:07.516Z,18.67
2018-03-08T02:55:33.775Z,18.66
2018-03-08T02:57:59.961Z,18.66
2018-03-08T03:00:26.120Z,18.68
2018-03-08T03:02:52.335Z,18.67
2018-03-08T03:05:18.540Z,18.67
2018-03-08T03:07:44.721Z,18.65
2018-03-08T03:10:10.905Z,18.66
2018-03-08T03:12:37.115Z,18.65
2018-03-08T03:15:03.302Z,18.65
2018-03-08T03:17:29.555Z,18.64
2018-03-08T03:19:56.042Z,18.62
2018-03-08T03:22:22.574Z,18.64
2018-03-08T03:24:48.770Z,18.66
2018-03-08T03:27:14.965Z,18.65
2018-03-08T03:29:41.468Z,18.63
2018-03-08T03:32:07.894Z,18.65
2018-03-08T03:34:34.081Z,18.65
2018-03-08T03:37:00.552Z,18.62
2018-03-08T03:39:26.784Z,18.63
2018-03-08T03:41:53.027Z,18.67
2018-03-08T03:44:19.173Z,18.70
2018-03-08T03:46:45.367Z,18.70
2018-03-08T03:49:11.638Z,18.69
2018-03-08T03:51:37.811Z,18.70
2018-03-08T03:54:04.068Z,18.72
2018-03-08T03:56:30.586Z,18.71
2018-03-08T03:58:56.754Z,18.71
2018-03-08T04:01:22.932Z,18.70
2018-03-08T04:03:49.158Z,18.70
2018-03-08T04:06:15.350Z,18.71
2018-03-08T04:08:41.612Z,18.69
2018-03-08T04:11:07.767Z,18.67
2018-03-08T04:13:33.924Z,18.68
2018-03-08T04:16:00.127Z,18.68
2018-03-08T04:18:26.319Z,18.69
2018-03-08T04:20:52.875Z,18.70
2018-03-08T04:23:19.296Z,18.70
2018-03-08T04:25:45.505Z,18.68
2018-03-08T04:28:11.693Z,18.67
2018-03-08T04:30:38.199Z,18.69
2018-03-08T04:33:04.733Z,18.66
2018-03-08T04:35:30.911Z,18.68
2018-03-08T04:37:57.083Z,18.66
2018-03-08T04:40:23.277Z,18.66
2018-03-08T04:42:49.455Z,18.66
2018-03-08T04:45:15.627Z,18.65
2018-03-08T04:47:41.786Z,18.67
2018-03-08T04:50:08.005Z,18.68
2018-03-08T04:52:34.164Z,18.70
2018-03-08T04:55:00.783Z,18.72
2018-03-08T04:57:26.947Z,18.71
2018-03-08T04:59:53.123Z,18.71
2018-03-08T05:02:26.128Z,18.70
2018-03-08T05:04:52.333Z,18.65
2018-03-08T05:07:18.522Z,18.63
2018-03-08T05:09:44.722Z,18.63
2018-03-08T05:12:10.948Z,18.64
2018-03-08T05:14:37.141Z,18.62
2018-03-08T05:17:03.698Z,18.65
2018-03-08T05:19:29.874Z,18.67
2018-03-08T05:21:56.283Z,18.66
2018-03-08T05:24:22.516Z,18.63
2018-03-08T05:26:48.700Z,18.63
2018-03-08T05:29:15.136Z,18.63
2018-03-08T05:31:41.331Z,18.63
2018-03-08T05:34:07.520Z,18.66
2018-03-08T05:36:33.723Z,18.63
2018-03-08T05:38:59.894Z,18.57
2018-03-08T05:41:26.173Z,18.57
2018-03-08T05:43:52.387Z,18.56
2018-03-08T05:46:18.561Z,18.58
2018-03-08T05:48:44.759Z,18.56
2018-03-08T05:51:10.946Z,18.55
2018-03-08T05:53:37.143Z,18.54
2018-03-08T05:56:03.339Z,18.55
2018-03-08T05:58:29.568Z,18.55
2018-03-08T06:00:56.127Z,18.56
2018-03-08T06:03:22.333Z,18.56
2018-03-08T06:05:48.768Z,18.54
2018-03-08T06:08:15.000Z,18.52
2018-03-08T06:10:41.167Z,18.49
2018-03-08T06:13:07.371Z,18.52
2018-03-08T06:15:33.543Z,18.60
2018-03-08T06:17:59.696Z,18.56
2018-03-08T06:20:26.244Z,18.54
2018-03-08T06:22:52.400Z,18.58
2018-03-08T06:25:18.599Z,18.60
2018-03-08T06:27:44.748Z,18.64
2018-03-08T06:30:10.986Z,18.66
2018-03-08T06:32:37.139Z,18.66
2018-03-08T06:35:03.338Z,18.66
2018-03-08T06:37:29.592Z,18.63
2018-03-08T06:39:55.788Z,18.59
2018-03-08T06:42:21.964Z,18.61
2018-03-08T06:44:48.198Z,18.63
2018-03-08T06:47:14.353Z,18.59
2018-03-08T06:49:40.875Z,18.56
2018-03-08T06:52:07.087Z,18.53
2018-03-08T06:54:33.235Z,18.53
2018-03-08T06:56:59.766Z,18.51
2018-03-08T06:59:26.038Z,18.52
2018-03-08T07:01:52.432Z,18.51
2018-03-08T07:04:18.623Z,18.56
2018-03-08T07:06:44.853Z,18.65
2018-03-08T07:09:11.031Z,18.69
2018-03-08T07:11:37.544Z,18.72
2018-03-08T07:14:05.998Z,18.72
2018-03-08T07:16:32.189Z,18.64
2018-03-08T07:18:58.695Z,18.54
2018-03-08T07:21:24.909Z,18.49
2018-03-08T07:23:51.159Z,18.54
2018-03-08T07:26:17.364Z,18.59
2018-03-08T07:28:43.552Z,18.56
2018-03-08T07:31:10.038Z,18.53
2018-03-08T07:33:36.244Z,18.49
2018-03-08T07:36:02.471Z,18.46
2018-03-08T07:38:28.684Z,18.47
2018-03-08T07:40:54.919Z,18.46
2018-03-08T07:43:21.106Z,18.44
2018-03-08T07:45:47.298Z,18.42
2018-03-08T07:48:13.561Z,18.42
2018-03-08T07:50:39.792Z,18.42
2018-03-08T07:53:05.965Z,18.42
2018-03-08T07:55:32.171Z,18.43
2018-03-08T07:57:58.384Z,18.45
2018-03-08T08:00:24.671Z,18.48
2018-03-08T08:02:50.833Z,18.54
2018-03-08T08:05:29.262Z,18.54
2018-03-08T08:08:07.691Z,18.53
2018-03-08T08:10:33.910Z,18.50
2018-03-08T08:13:00.107Z,18.53
2018-03-08T08:15:26.275Z,18.51
2018-03-08T08:17:52.838Z,18.50
2018-03-08T08:20:19.007Z,18.51
2018-03-08T08:22:45.233Z,18.52
2018-03-08T08:25:11.424Z,18.52
2018-03-08T08:27:37.959Z,18.52
2018-03-08T08:30:04.503Z,18.51
2018-03-08T08:32:30.688Z,18.51
2018-03-08T08:34:56.864Z,18.49
2018-03-08T08:37:23.060Z,18.51
2018-03-08T08:39:49.267Z,18.53
2018-03-08T08:42:15.446Z,18.52
2018-03-08T08:44:41.966Z,18.52
2018-03-08T08:47:08.393Z,18.51
2018-03-08T08:49:34.575Z,18.53
2018-03-08T08:52:00.800Z,18.54
2018-03-08T08:54:26.988Z,18.57
2018-03-08T08:56:53.512Z,18.62
2018-03-08T08:59:20.000Z,18.64
2018-03-08T09:01:46.489Z,18.66
2018-03-08T09:04:13.447Z,18.65
2018-03-08T09:06:39.662Z,18.67
2018-03-08T09:09:05.824Z,18.67
2018-03-08T09:11:31.995Z,18.69
2018-03-08T09:13:58.196Z,18.70
2018-03-08T09:16:24.677Z,18.72
2018-03-08T09:18:50.913Z,18.72
2018-03-08T09:21:17.069Z,18.70
2018-03-08T09:23:43.261Z,18.66
2018-03-08T09:26:09.451Z,18.71
2018-03-08T09:28:35.694Z,18.72
2018-03-08T09:31:01.853Z,18.69
2018-03-08T09:33:28.112Z,18.70
2018-03-08T09:35:54.308Z,18.71
2018-03-08T09:38:20.528Z,18.72
2018-03-08T09:40:46.729Z,18.69
2018-03-08T09:43:12.900Z,18.70
2018-03-08T09:45:39.075Z,18.67
2018-03-08T09:48:05.289Z,18.67
2018-03-08T09:50:31.484Z,18.66
2018-03-08T09:52:57.663Z,18.73
2018-03-08T09:55:24.226Z,18.76
2018-03-08T09:57:50.519Z,18.78
2018-03-08T10:00:16.770Z,18.80
2018-03-08T10:02:42.947Z,18.77
2018-03-08T10:05:09.435Z,18.78
2018-03-08T10:07:35.694Z,18.79
2018-03-08T10:10:01.885Z,18.82
2018-03-08T10:12:28.077Z,18.88
2018-03-08T10:14:54.307Z,18.94
2018-03-08T10:17:20.521Z,19.02
2018-03-08T10:19:46.778Z,19.03
2018-03-08T10:22:12.982Z,19.02
2018-03-08T10:24:39.168Z,19.03
2018-03-08T10:27:05.697Z,19.10
2018-03-08T10:29:31.865Z,19.17
2018-03-08T10:31:58.052Z,19.18
2018-03-08T10:34:24.265Z,19.15
2018-03-08T10:36:50.479Z,19.14
2018-03-08T10:44:09.390Z,19.14
2018-03-08T10:46:35.608Z,19.23
2018-03-08T10:51:27.855Z,19.29
2018-03-08T10:53:54.074Z,19.32
2018-03-08T10:56:20.251Z,19.41
2018-03-08T10:58:46.491Z,19.52
2018-03-08T11:01:18.699Z,19.61
2018-03-08T11:03:47.948Z,19.63
2018-03-08T11:06:20.270Z,19.62
2018-03-08T11:08:46.440Z,19.57
2018-03-08T11:11:19.659Z,19.57
2018-03-08T11:13:45.829Z,19.59
2018-03-08T11:16:12.014Z,19.62
2018-03-08T11:18:38.212Z,19.72
2018-03-08T11:21:04.363Z,19.73
2018-03-08T11:23:30.699Z,19.68
2018-03-08T11:25:56.918Z,19.64
2018-03-08T11:28:23.239Z,19.62
2018-03-08T11:30:49.464Z,19.67
2018-03-08T11:33:15.949Z,19.75
2018-03-08T11:35:42.133Z,19.82
2018-03-08T11:38:08.736Z,19.86
2018-03-08T11:40:34.959Z,19.96
2018-03-08T11:43:01.181Z,19.86
2018-03-08T11:45:27.674Z,19.84
2018-03-08T11:47:54.159Z,19.90
2018-03-08T11:50:21.788Z,20.04
2018-03-08T11:52:46.604Z,20.07
2018-03-08T11:55:13.155Z,20.07
2018-03-08T11:57:39.444Z,20.06
2018-03-08T12:00:05.693Z,20.11
2018-03-08T12:02:31.886Z,20.17
2018-03-08T12:04:58.098Z,20.21
2018-03-08T12:07:24.333Z,20.21
2018-03-08T12:09:50.500Z,20.23
2018-03-08T12:12:16.725Z,20.27
2018-03-08T12:14:42.925Z,20.33
2018-03-08T12:17:09.170Z,20.38
2018-03-08T12:19:35.358Z,20.42
2018-03-08T12:22:01.869Z,20.44
2018-03-08T12:24:28.048Z,20.46
2018-03-08T12:26:54.285Z,20.51
2018-03-08T12:29:20.484Z,20.56
2018-03-08T12:31:46.676Z,20.59
2018-03-08T12:34:12.892Z,20.65
2018-03-08T12:36:39.449Z,20.67
2018-03-08T12:39:05.973Z,20.63
2018-03-08T12:41:32.162Z,20.59
2018-03-08T12:43:58.343Z,20.65
2018-03-08T12:46:24.628Z,20.77
2018-03-08T12:48:50.851Z,20.82
2018-03-08T12:51:17.339Z,20.86
2018-03-08T12:53:43.864Z,20.88
2018-03-08T12:56:10.043Z,20.88
2018-03-08T12:58:36.337Z,20.93
2018-03-08T13:01:02.591Z,20.95
2018-03-08T13:03:28.898Z,20.94
2018-03-08T13:05:55.121Z,21.02
2018-03-08T13:08:21.325Z,21.10
2018-03-08T13:10:47.565Z,21.15
2018-03-08T13:13:13.795Z,21.21
2018-03-08T13:15:40.066Z,21.29
2018-03-08T13:18:06.266Z,21.32
2018-03-08T13:20:32.447Z,21.32
2018-03-08T13:22:58.740Z,21.32
2018-03-08T13:25:25.240Z,21.37
2018-03-08T13:27:51.468Z,21.40
2018-03-08T13:30:17.710Z,21.42
2018-03-08T13:32:43.924Z,21.44
2018-03-08T13:35:10.454Z,21.44
2018-03-08T13:37:36.986Z,21.41
2018-03-08T13:43:05.926Z,21.30
2018-03-08T13:45:32.100Z,21.17
2018-03-08T13:47:58.554Z,21.10
2018-03-08T13:50:24.760Z,21.07
2018-03-08T13:52:51.215Z,21.05
2018-03-08T13:55:17.758Z,21.03
2018-03-08T13:57:43.913Z,21.10
2018-03-08T14:00:10.431Z,21.15
2018-03-08T14:02:36.623Z,21.21
2018-03-08T14:05:02.790Z,21.23
2018-03-08T14:07:28.987Z,21.15
2018-03-08T14:09:55.158Z,21.00
2018-03-08T14:12:21.363Z,20.86
2018-03-08T14:14:47.886Z,20.74
2018-03-08T14:17:14.090Z,20.66
2018-03-08T14:19:40.275Z,20.62
2018-03-08T14:22:06.467Z,20.65
2018-03-08T14:24:32.673Z,20.66
2018-03-08T14:26:59.135Z,20.63
2018-03-08T14:29:25.334Z,20.60
2018-03-08T14:31:51.530Z,20.56
2018-03-08T14:34:17.747Z,20.52
2018-03-08T14:36:43.906Z,20.46
2018-03-08T14:39:10.073Z,20.47
2018-03-08T14:41:36.301Z,20.47
2018-03-08T14:44:02.456Z,20.47
2018-03-08T14:46:28.645Z,20.46
2018-03-08T14:48:54.880Z,20.42
2018-03-08T14:51:21.064Z,20.41
2018-03-08T14:53:47.531Z,20.40
2018-03-08T14:56:14.072Z,20.38
2018-03-08T14:58:40.248Z,20.36
2018-03-08T15:01:06.426Z,20.32
2018-03-08T15:03:32.650Z,20.29
2018-03-08T15:05:58.867Z,20.26
2018-03-08T15:08:25.055Z,20.22
2018-03-08T15:10:51.211Z,20.18
2018-03-08T15:13:17.768Z,20.15
2018-03-08T15:15:43.947Z,20.10
2018-03-08T15:18:10.430Z,20.07
2018-03-08T15:20:36.622Z,20.04
2018-03-08T15:23:02.798Z,20.02
2018-03-08T15:25:28.997Z,20.00
2018-03-08T15:27:55.159Z,19.98
2018-03-08T15:30:21.379Z,19.95
2018-03-08T15:32:47.545Z,19.92
2018-03-08T15:35:13.724Z,19.89
2018-03-08T15:37:39.946Z,19.88
2018-03-08T15:40:06.138Z,19.86
2018-03-08T15:42:32.292Z,19.84
2018-03-08T15:44:58.493Z,19.84
2018-03-08T15:47:24.697Z,19.83
2018-03-08T15:49:50.881Z,19.80
2018-03-08T15:52:17.071Z,19.81
2018-03-08T15:54:43.319Z,19.82
2018-03-08T15:57:09.474Z,19.81
2018-03-08T15:59:35.645Z,19.78
2018-03-08T16:02:01.909Z,19.75
2018-03-08T16:04:28.150Z,19.75
2018-03-08T16:10:30.910Z,19.70
2018-03-08T16:12:57.363Z,19.68
2018-03-08T16:15:23.553Z,19.67
2018-03-08T16:17:49.785Z,19.64
2018-03-08T16:20:16.226Z,19.62
2018-03-08T16:22:42.422Z,19.59
2018-03-08T16:25:08.625Z,19.58
2018-03-08T16:27:34.834Z,19.56
2018-03-08T16:30:01.004Z,19.55
2018-03-08T16:32:27.214Z,19.52
2018-03-08T16:34:53.371Z,19.51
2018-03-08T16:37:19.582Z,19.50
2018-03-08T16:39:45.966Z,19.50
2018-03-08T16:42:12.124Z,19.49
2018-03-08T16:44:38.345Z,19.48
2018-03-08T16:47:04.574Z,19.46
2018-03-08T16:49:30.732Z,19.45
2018-03-08T16:51:56.905Z,19.44
2018-03-08T16:54:23.109Z,19.46
2018-03-08T16:56:49.496Z,19.47
2018-03-08T16:59:15.683Z,19.43
2018-03-08T17:01:41.870Z,19.40
2018-03-08T17:04:08.113Z,19.41
2018-03-08T17:06:34.264Z,19.40
2018-03-08T17:09:00.408Z,19.39
2018-03-08T17:11:26.579Z,19.37
2018-03-08T17:13:52.784Z,19.34
2018-03-08T17:16:18.948Z,19.32
2018-03-08T17:18:45.145Z,19.31
2018-03-08T17:21:11.338Z,19.29
2018-03-08T17:23:37.509Z,19.29
2018-03-08T17:26:04.024Z,19.26
2018-03-08T17:28:30.221Z,19.25
2018-03-08T17:30:56.439Z,19.22
2018-03-08T17:33:22.607Z,19.22
2018-03-08T17:35:48.750Z,19.24
2018-03-08T17:38:14.939Z,19.22
2018-03-08T17:40:41.104Z,19.22
2018-03-08T17:43:07.531Z,19.20
2018-03-08T17:45:33.731Z,19.20
2018-03-08T17:48:00.185Z,19.19
2018-03-08T17:50:26.332Z,19.17
2018-03-08T17:52:52.582Z,19.17
2018-03-08T17:55:18.722Z,19.25
2018-03-08T17:57:44.872Z,19.35
2018-03-08T18:00:11.100Z,19.41
2018-03-08T18:02:37.252Z,19.43
2018-03-08T18:05:03.445Z,19.45
2018-03-08T18:07:29.647Z,19.46
2018-03-08T18:09:55.850Z,19.45
2018-03-08T18:12:22.065Z,19.46
2018-03-08T18:14:48.215Z,19.47
2018-03-08T18:17:14.408Z,19.50
2018-03-08T18:19:40.604Z,19.47
2018-03-08T18:22:06.758Z,19.46
2018-03-08T18:24:33.256Z,19.49
2018-03-08T18:26:59.458Z,19.46
2018-03-08T18:29:25.776Z,19.44
2018-03-08T18:31:51.980Z,19.43
2018-03-08T18:34:18.131Z,19.43
2018-03-08T18:36:44.279Z,19.45
2018-03-08T18:39:10.446Z,19.45
2018-03-08T18:41:36.604Z,19.43
2018-03-08T18:44:03.124Z,19.43
2018-03-08T18:46:29.328Z,19.46
2018-03-08T18:48:55.590Z,19.48
2018-03-08T18:51:21.754Z,19.48
2018-03-08T18:53:47.909Z,19.47
2018-03-08T18:56:14.075Z,19.46
2018-03-08T18:58:40.261Z,19.45
2018-03-08T19:01:06.424Z,19.43
2018-03-08T19:03:32.572Z,19.45
2018-03-08T19:05:58.807Z,19.44
2018-03-08T19:08:24.986Z,19.42
2018-03-08T19:10:51.534Z,19.39
2018-03-08T19:13:17.742Z,19.39
2018-03-08T19:15:43.893Z,19.39
2018-03-08T19:18:10.414Z,19.40
2018-03-08T19:20:36.572Z,19.40
2018-03-08T19:23:02.776Z,19.42
2018-03-08T19:25:28.920Z,19.43
2018-03-08T19:27:55.077Z,19.42
2018-03-08T19:30:21.329Z,19.43
2018-03-08T19:32:47.443Z,19.45
2018-03-08T19:35:13.912Z,19.41
2018-03-08T19:37:40.077Z,19.39
2018-03-08T19:40:06.306Z,19.41
2018-03-08T19:42:32.488Z,19.40
2018-03-08T19:44:58.702Z,19.37
2018-03-08T19:47:24.906Z,19.38
2018-03-08T19:49:51.078Z,19.38
2018-03-08T19:52:17.266Z,19.36
2018-03-08T19:54:43.416Z,19.34
2018-03-08T19:57:09.866Z,19.33
2018-03-08T19:59:36.043Z,19.32
2018-03-08T20:02:02.250Z,19.31
2018-03-08T20:04:28.396Z,19.29
2018-03-08T20:06:54.552Z,19.27
2018-03-08T20:09:20.724Z,19.27
2018-03-08T20:11:46.885Z,19.28
2018-03-08T20:14:13.359Z,19.27
2018-03-08T20:16:39.792Z,19.30
2018-03-08T20:19:05.944Z,19.29
2018-03-08T20:21:32.119Z,19.27
2018-03-08T20:26:30.087Z,19.25
2018-03-08T20:28:56.229Z,19.30
2018-03-08T20:31:22.686Z,19.33
2018-03-08T20:33:49.120Z,19.33
2018-03-08T20:36:15.385Z,19.35
2018-03-08T20:38:41.885Z,19.37
2018-03-08T20:41:08.036Z,19.37
2018-03-08T20:43:34.646Z,19.37
2018-03-08T20:46:00.816Z,19.35
2018-03-08T20:48:26.963Z,19.34
2018-03-08T20:50:53.142Z,19.36
2018-03-08T20:53:19.279Z,19.38
2018-03-08T20:55:45.501Z,19.38
2018-03-08T20:58:12.540Z,19.37
2018-03-08T21:00:38.682Z,19.37
2018-03-08T21:03:04.866Z,19.35
2018-03-08T21:05:31.035Z,19.33
2018-03-08T21:07:57.221Z,19.32
2018-03-08T21:10:23.398Z,19.30
2018-03-08T21:12:49.543Z,19.30
2018-03-08T21:15:15.768Z,19.30
2018-03-08T21:17:41.910Z,19.32
2018-03-08T21:20:08.098Z,19.31
2018-03-08T21:22:34.262Z,19.32
2018-03-08T21:25:00.447Z,19.33
2018-03-08T21:27:26.590Z,19.32
2018-03-08T21:29:52.749Z,19.32
2018-03-08T21:32:18.977Z,19.34
2018-03-08T21:34:45.135Z,19.37
2018-03-08T21:37:11.566Z,19.38
2018-03-08T21:39:37.755Z,19.36
2018-03-08T21:42:03.908Z,19.34
2018-03-08T21:44:30.191Z,19.30
2018-03-08T21:46:56.362Z,19.30
2018-03-08T21:49:22.517Z,19.28
2018-03-08T21:51:48.881Z,19.27
2018-03-08T21:54:15.291Z,19.24
2018-03-08T21:56:41.462Z,19.27
2018-03-08T21:59:07.650Z,19.23
2018-03-08T22:01:33.826Z,19.23
2018-03-08T22:04:00.081Z,19.22
2018-03-08T22:06:26.368Z,19.21
2018-03-08T22:08:52.554Z,19.18
2018-03-08T22:11:18.711Z,19.18
2018-03-08T22:13:44.888Z,19.20
2018-03-08T22:16:11.317Z,19.19
2018-03-08T22:18:37.522Z,19.20
2018-03-08T22:21:03.674Z,19.17
2018-03-08T22:23:30.207Z,19.17
2018-03-08T22:25:56.356Z,19.20
2018-03-08T22:28:22.509Z,19.22
2018-03-08T22:30:48.680Z,19.21
2018-03-08T22:33:14.829Z,19.19
2018-03-08T22:35:41.006Z,19.19
2018-03-08T22:38:07.211Z,19.20
2018-03-08T22:40:33.802Z,19.22
2018-03-08T22:43:00.007Z,19.20
2018-03-08T22:45:26.177Z,19.19
2018-03-08T22:47:52.331Z,19.20
2018-03-08T22:50:18.549Z,19.23
2018-03-08T22:52:45.050Z,19.25
2018-03-08T22:55:11.213Z,19.25
2018-03-08T22:57:37.392Z,19.26
2018-03-08T23:00:03.629Z,19.28
2018-03-08T23:02:32.642Z,19.24
2018-03-08T23:04:58.797Z,19.25
2018-03-08T23:07:25.006Z,19.21
2018-03-08T23:09:51.153Z,19.23
2018-03-08T23:12:17.296Z,19.24
2018-03-08T23:14:43.494Z,19.30
2018-03-08T23:17:09.659Z,19.31
2018-03-08T23:19:36.119Z,19.31
2018-03-08T23:22:02.551Z,19.29
2018-03-08T23:24:28.722Z,19.29
2018-03-08T23:26:55.211Z,19.27
2018-03-08T23:31:53.125Z,19.23
2018-03-08T23:34:19.537Z,19.22
2018-03-08T23:36:45.686Z,19.22
2018-03-08T23:39:12.189Z,19.22
2018-03-08T23:41:38.440Z,19.22
2018-03-08T23:44:04.597Z,19.27
2018-03-08T23:46:30.819Z,19.24
2018-03-08T23:48:56.995Z,19.26
2018-03-08T23:51:23.151Z,19.26
2018-03-08T23:53:49.659Z,19.25
2018-03-08T23:56:16.193Z,19.21
2018-03-08T23:58:42.381Z,19.19
